Excellence — KTDP — position and weather

sailwx.info

Track history (hours):
 
Tides and Currents Weather Stations Pressure Air Temp Water Temp Dewpoint Dewpoint Depression Visibility Wind Speed Wind Dir Waves Ship Positions

Excellence

Owner: ALASKA JOINT VENTURE SEAFOODS INC, SEATTLE, WA. More information available from US FCC via Universal Licensing System and Coast Guard Vessel Documentation Center.

Last reported at 2014-Sep-27 19:31 UTC. Time now 2014-Nov-21 18:04 UTC.
Position N 47°38' W 122°23'.
Warning: this ship's position is 54 days out of date.

Length 112 m; draft 7 m.

Type: Fishing. MMSI: 338162000.

Date/timePositionNaut miles runAvg speedWind from/ knotsBaromVisibWave heightAir tempDewpointWater temp
2014-Sep-27 19:31N 47°38' W 122°23'0 0.0
2014-Sep-27 18:33N 47°38' W 122°23'2 1.5
2014-Sep-27 17:33N 47°37' W 122°25'3 2.6
2014-Sep-27 16:33N 47°39' W 122°28'6 6.2
2014-Sep-27 15:33N 47°45' W 122°27'6 6.5
2014-Sep-27 14:33N 47°51' W 122°29'9 9.4
2014-Sep-27 13:33N 47°59' W 122°37'1312.6
2014-Sep-27 12:32N 48°10' W 122°47'1312.7
2014-Sep-27 11:32N 48°12' W 123°06'1212.5
2014-Sep-27 10:33N 48°13' W 123°24'1212.0
2014-Sep-27 09:34N 48°14' W 123°42'1211.8
2014-Sep-27 08:34N 48°15' W 123°59'1111.5
2014-Sep-27 07:34N 48°19' W 124°15'1110.9
2014-Sep-27 06:33N 48°24' W 124°30'1110.8
2014-Sep-27 05:33N 48°28' W 124°45'1010.2
2014-Sep-27 04:33N 48°27' W 125°01'1111.1
2014-Sep-27 03:31N 48°17' W 125°08'16 7.2
2014-Sep-27 01:21N 48°03' W 125°18'1 0.9
2014-Sep-27 00:31N 48°02' W 125°20'  
Track history (hours):
 
Tides and Currents Weather Stations Pressure Air Temp Water Temp Dewpoint Dewpoint Depression Visibility Wind Speed Wind Dir Waves Ship Positions

Excellence

Owner: ALASKA JOINT VENTURE SEAFOODS INC, SEATTLE, WA. More information available from US FCC via Universal Licensing System and Coast Guard Vessel Documentation Center.

Last reported at 2014-Sep-27 19:31 UTC. Time now 2014-Nov-21 18:04 UTC.
Position N 47°38' W 122°23'.
Warning: this ship's position is 54 days out of date.

Length 112 m; draft 7 m.

Type: Fishing. MMSI: 338162000.

Date/timePositionNaut miles runAvg speedWind from/ knotsBaromVisibWave heightAir tempDewpointWater temp
2014-Sep-27 19:31N 47°38' W 122°23'0 0.0
2014-Sep-27 18:33N 47°38' W 122°23'2 1.5
2014-Sep-27 17:33N 47°37' W 122°25'3 2.6
2014-Sep-27 16:33N 47°39' W 122°28'6 6.2
2014-Sep-27 15:33N 47°45' W 122°27'6 6.5
2014-Sep-27 14:33N 47°51' W 122°29'9 9.4
2014-Sep-27 13:33N 47°59' W 122°37'1312.6
2014-Sep-27 12:32N 48°10' W 122°47'1312.7
2014-Sep-27 11:32N 48°12' W 123°06'1212.5
2014-Sep-27 10:33N 48°13' W 123°24'1212.0
2014-Sep-27 09:34N 48°14' W 123°42'1211.8
2014-Sep-27 08:34N 48°15' W 123°59'1111.5
2014-Sep-27 07:34N 48°19' W 124°15'1110.9
2014-Sep-27 06:33N 48°24' W 124°30'1110.8
2014-Sep-27 05:33N 48°28' W 124°45'1010.2
2014-Sep-27 04:33N 48°27' W 125°01'1111.1
2014-Sep-27 03:31N 48°17' W 125°08'16 7.2
2014-Sep-27 01:21N 48°03' W 125°18'1 0.9
2014-Sep-27 00:31N 48°02' W 125°20'  

Dump ship's entire track history